Time,TemperatureF,DewpointF,PressureIn,WindDirection,WindDirectionDegrees,WindSpeedMPH,WindSpeedGustMPH,Humidity,HourlyPrecipIn,Conditions,Clouds,dailyrainin,SolarRadiationWatts/m^2,SoftwareType,DateUTC
2013-01-20 00:22:00,65.0,-30.0,-100.00,NNE,26,26.0,52.0,0,0.00,,,0.00,0.000000,,2013-01-20 10:22:00,
2013-01-20 00:32:00,65.0,-30.0,-100.00,NNE,26,26.0,52.0,0,0.00,,,0.00,0.000000,,2013-01-20 10:32:00,
2013-01-20 00:42:00,65.0,-30.0,-100.00,NNE,26,26.0,52.0,0,0.00,,,0.00,0.000000,,2013-01-20 10:42:00,
2013-01-20 00:52:00,64.0,-31.0,-100.00,NNW,343,23.0,51.0,0,0.00,,,0.00,0.000000,,2013-01-20 10:52:00,
2013-01-20 01:12:00,64.0,-31.0,-100.00,NNW,343,23.0,51.0,0,0.00,,,0.00,0.000000,,2013-01-20 11:12:00,
2013-01-20 01:22:00,64.0,-31.0,-100.00,NNW,343,23.0,51.0,0,0.00,,,0.00,0.000000,,2013-01-20 11:22:00,
2013-01-20 01:32:00,64.0,-31.0,-100.00,NNW,343,23.0,51.0,0,0.00,,,0.00,0.000000,,2013-01-20 11:32:00,
2013-01-20 01:42:00,64.0,-31.0,-100.00,NNW,343,23.0,51.0,0,0.00,,,0.00,0.000000,,2013-01-20 11:42:00,
2013-01-20 01:52:00,64.0,-31.0,-100.00,NNE,30,27.0,44.0,0,0.00,,,0.00,0.000000,,2013-01-20 11:52:00,
2013-01-20 02:22:00,64.0,-31.0,-100.00,NNE,30,27.0,44.0,0,0.00,,,0.00,0.000000,,2013-01-20 12:22:00,
2013-01-20 02:33:00,64.0,-31.0,-100.00,NNE,30,27.0,44.0,0,0.00,,,0.00,0.000000,,2013-01-20 12:33:00,
2013-01-20 02:42:00,64.0,-31.0,-100.00,NNE,30,27.0,44.0,0,0.00,,,0.00,0.000000,,2013-01-20 12:42:00,
2013-01-20 02:52:00,65.0,-30.0,-100.00,NNE,28,25.0,50.0,0,0.00,,,0.00,0.000000,,2013-01-20 12:52:00,
2013-01-20 03:12:00,65.0,-30.0,-100.00,NNE,28,25.0,50.0,0,0.00,,,0.00,0.000000,,2013-01-20 13:12:00,
2013-01-20 03:23:00,65.0,-30.0,-100.00,NNE,28,25.0,50.0,0,0.00,,,0.00,0.000000,,2013-01-20 13:23:00,
2013-01-20 03:33:00,65.0,-30.0,-100.00,NNE,28,25.0,50.0,0,0.00,,,0.00,0.000000,,2013-01-20 13:33:00,
2013-01-20 03:42:00,65.0,-30.0,-100.00,NNE,28,25.0,50.0,0,0.00,,,0.00,0.000000,,2013-01-20 13:42:00,
2013-01-20 03:52:00,63.0,-31.0,-100.00,NNE,24,25.0,52.0,0,0.00,,,0.00,0.000000,,2013-01-20 13:52:00,
2013-01-20 04:12:00,63.0,-31.0,-100.00,NNE,24,25.0,52.0,0,0.00,,,0.00,0.000000,,2013-01-20 14:12:00,
2013-01-20 04:22:00,63.0,-31.0,-100.00,NNE,24,25.0,52.0,0,0.00,,,0.00,0.000000,,2013-01-20 14:22:00,
2013-01-20 04:32:00,63.0,-31.0,-100.00,NNE,24,25.0,52.0,0,0.00,,,0.00,0.000000,,2013-01-20 14:32:00,
2013-01-20 04:42:00,63.0,-31.0,-100.00,NNE,24,25.0,52.0,0,0.00,,,0.00,0.000000,,2013-01-20 14:42:00,
2013-01-20 04:52:00,64.0,-31.0,-100.00,NNE,25,24.0,50.0,0,0.00,,,0.00,0.000000,,2013-01-20 14:52:00,
2013-01-20 05:12:00,64.0,-31.0,-100.00,NNE,25,24.0,50.0,0,0.00,,,0.00,0.000000,,2013-01-20 15:12:00,
2013-01-20 05:22:00,64.0,-31.0,-100.00,NNE,25,24.0,50.0,0,0.00,,,0.00,0.000000,,2013-01-20 15:22:00,
2013-01-20 05:33:00,64.0,-31.0,-100.00,NNE,25,24.0,50.0,0,0.00,,,0.00,0.000000,,2013-01-20 15:33:00,
2013-01-20 05:42:00,64.0,-31.0,-100.00,NNE,25,24.0,50.0,0,0.00,,,0.00,0.000000,,2013-01-20 15:42:00,
2013-01-20 05:52:00,63.0,-31.0,-100.00,SE,145,18.0,47.0,0,0.00,,,-99.99,0.000000,,2013-01-20 15:52:00,
2013-01-20 06:12:00,63.0,-31.0,-100.00,SE,145,18.0,47.0,0,0.00,,,-99.99,0.000000,,2013-01-20 16:12:00,
2013-01-20 06:22:00,63.0,-31.0,-100.00,SE,145,18.0,47.0,0,0.00,,,-99.99,0.000000,,2013-01-20 16:22:00,
2013-01-20 06:33:00,63.0,-31.0,-100.00,SE,145,18.0,47.0,0,0.00,,,-99.99,0.000000,,2013-01-20 16:33:00,
2013-01-20 06:42:00,63.0,-31.0,-100.00,SE,145,18.0,47.0,0,0.00,,,-99.99,0.000000,,2013-01-20 16:42:00,
2013-01-20 06:52:00,63.0,-31.0,-100.00,North,352,17.0,43.0,0,0.00,,,0.00,0.000000,,2013-01-20 16:52:00,
2013-01-20 07:12:00,63.0,-31.0,-100.00,North,352,17.0,43.0,0,0.00,,,0.00,0.000000,,2013-01-20 17:12:00,
2013-01-20 07:22:00,63.0,-31.0,-100.00,North,352,17.0,43.0,0,0.00,,,0.00,0.000000,,2013-01-20 17:22:00,
2013-01-20 07:32:00,63.0,-31.0,-100.00,North,352,17.0,43.0,0,0.00,,,0.00,0.000000,,2013-01-20 17:32:00,
2013-01-20 07:42:00,63.0,-31.0,-100.00,North,352,17.0,43.0,0,0.00,,,0.00,0.000000,,2013-01-20 17:42:00,
2013-01-20 07:52:00,63.0,-31.0,-100.00,WSW,256,24.0,45.0,0,0.00,,,0.00,0.000000,,2013-01-20 17:52:00,
2013-01-20 08:23:00,63.0,-31.0,-100.00,WSW,256,24.0,45.0,0,0.00,,,0.00,0.000000,,2013-01-20 18:23:00,
2013-01-20 08:33:00,63.0,-31.0,-100.00,WSW,256,24.0,45.0,0,0.00,,,0.00,0.000000,,2013-01-20 18:33:00,
2013-01-20 08:42:00,63.0,-31.0,-100.00,WSW,256,24.0,45.0,0,0.00,,,0.00,0.000000,,2013-01-20 18:42:00,
2013-01-20 08:52:00,65.0,-30.0,-100.00,SE,127,20.0,47.0,0,0.00,,,0.00,78.000000,,2013-01-20 18:52:00,
2013-01-20 09:12:00,65.0,-30.0,-100.00,SE,127,20.0,47.0,0,0.00,,,0.00,78.000000,,2013-01-20 19:12:00,
2013-01-20 09:22:00,65.0,-30.0,-100.00,SE,127,20.0,47.0,0,0.00,,,0.00,78.000000,,2013-01-20 19:22:00,
2013-01-20 09:33:00,65.0,-30.0,-100.00,SE,127,20.0,47.0,0,0.00,,,0.00,78.000000,,2013-01-20 19:33:00,
2013-01-20 09:42:00,65.0,-30.0,-100.00,SE,127,20.0,47.0,0,0.00,,,0.00,78.000000,,2013-01-20 19:42:00,
2013-01-20 09:52:00,69.0,-28.0,-100.00,SSE,164,22.0,44.0,0,0.00,,,0.00,343.000000,,2013-01-20 19:52:00,
2013-01-20 10:22:00,69.0,-28.0,-100.00,SSE,164,22.0,44.0,0,0.00,,,0.00,343.000000,,2013-01-20 20:22:00,
2013-01-20 10:33:00,69.0,-28.0,-100.00,SSE,164,22.0,44.0,0,0.00,,,0.00,343.000000,,2013-01-20 20:33:00,
2013-01-20 10:42:00,69.0,-28.0,-100.00,SSE,164,22.0,44.0,0,0.00,,,0.00,343.000000,,2013-01-20 20:42:00,
2013-01-20 10:52:00,69.0,-28.0,-100.00,NNE,31,25.0,35.0,0,0.00,,,0.00,602.000000,,2013-01-20 20:52:00,
2013-01-20 11:13:00,69.0,-28.0,-100.00,NNE,31,25.0,35.0,0,0.00,,,0.00,602.000000,,2013-01-20 21:13:00,
2013-01-20 11:22:00,69.0,-28.0,-100.00,NNE,31,25.0,35.0,0,0.00,,,0.00,602.000000,,2013-01-20 21:22:00,
2013-01-20 11:33:00,69.0,-28.0,-100.00,NNE,31,25.0,35.0,0,0.00,,,0.00,602.000000,,2013-01-20 21:33:00,
2013-01-20 11:42:00,69.0,-28.0,-100.00,NNE,31,25.0,35.0,0,0.00,,,0.00,602.000000,,2013-01-20 21:42:00,
2013-01-20 11:52:00,70.0,-27.0,-100.00,East,80,27.0,41.0,0,0.00,,,0.00,816.000000,,2013-01-20 21:52:00,
2013-01-20 12:22:00,70.0,-27.0,-100.00,East,80,27.0,41.0,0,0.00,,,0.00,816.000000,,2013-01-20 22:22:00,
2013-01-20 12:33:00,70.0,-27.0,-100.00,East,80,27.0,41.0,0,0.00,,,0.00,816.000000,,2013-01-20 22:33:00,
2013-01-20 12:42:00,70.0,-27.0,-100.00,East,80,27.0,41.0,0,0.00,,,0.00,816.000000,,2013-01-20 22:42:00,
2013-01-20 12:52:00,72.0,-26.0,-100.00,ENE,74,26.0,40.0,0,0.00,,,0.00,950.000000,,2013-01-20 22:52:00,
2013-01-20 13:12:00,72.0,-26.0,-100.00,ENE,74,26.0,40.0,0,0.00,,,0.00,950.000000,,2013-01-20 23:12:00,
2013-01-20 13:23:00,72.0,-26.0,-100.00,ENE,74,26.0,40.0,0,0.00,,,0.00,950.000000,,2013-01-20 23:23:00,
2013-01-20 13:33:00,72.0,-26.0,-100.00,ENE,74,26.0,40.0,0,0.00,,,0.00,950.000000,,2013-01-20 23:33:00,
2013-01-20 13:42:00,72.0,-26.0,-100.00,ENE,74,26.0,40.0,0,0.00,,,0.00,950.000000,,2013-01-20 23:42:00,
2013-01-20 13:52:00,71.0,-26.0,-100.00,East,98,24.0,37.0,0,0.00,,,0.00,1002.000000,,2013-01-20 23:52:00,
2013-01-20 14:22:00,71.0,-26.0,-100.00,East,98,24.0,37.0,0,0.00,,,0.00,1002.000000,,2013-01-21 00:22:00,
2013-01-20 14:33:00,71.0,-26.0,-100.00,East,98,24.0,37.0,0,0.00,,,0.00,1002.000000,,2013-01-21 00:33:00,
2013-01-20 14:42:00,71.0,-26.0,-100.00,East,98,24.0,37.0,0,0.00,,,0.00,1002.000000,,2013-01-21 00:42:00,
2013-01-20 14:52:00,72.0,-26.0,-100.00,NNE,31,26.0,40.0,0,0.00,,,0.00,974.000000,,2013-01-21 00:52:00,
2013-01-20 15:12:00,72.0,-26.0,-100.00,NNE,31,26.0,40.0,0,0.00,,,0.00,974.000000,,2013-01-21 01:12:00,
2013-01-20 15:22:00,72.0,-26.0,-100.00,NNE,31,26.0,40.0,0,0.00,,,0.00,974.000000,,2013-01-21 01:22:00,
2013-01-20 15:32:00,72.0,-26.0,-100.00,NNE,31,26.0,40.0,0,0.00,,,0.00,974.000000,,2013-01-21 01:32:00,
2013-01-20 15:42:00,72.0,-26.0,-100.00,NNE,31,26.0,40.0,0,0.00,,,0.00,974.000000,,2013-01-21 01:42:00,
2013-01-20 15:52:00,72.0,-26.0,-100.00,SSE,152,26.0,39.0,0,0.00,,,0.00,855.000000,,2013-01-21 01:52:00,
2013-01-20 16:23:00,72.0,-26.0,-100.00,SSE,152,26.0,39.0,0,0.00,,,0.00,855.000000,,2013-01-21 02:23:00,
2013-01-20 16:33:00,72.0,-26.0,-100.00,SSE,152,26.0,39.0,0,0.00,,,0.00,855.000000,,2013-01-21 02:33:00,
2013-01-20 16:42:00,72.0,-26.0,-100.00,SSE,152,26.0,39.0,0,0.00,,,0.00,855.000000,,2013-01-21 02:42:00,
2013-01-20 16:52:00,71.0,-26.0,-100.00,SE,144,23.0,40.0,0,0.00,,,0.00,655.000000,,2013-01-21 02:52:00,
2013-01-20 17:23:00,71.0,-26.0,-100.00,SE,144,23.0,40.0,0,0.00,,,0.00,655.000000,,2013-01-21 03:23:00,
2013-01-20 17:33:00,71.0,-26.0,-100.00,SE,144,23.0,40.0,0,0.00,,,0.00,655.000000,,2013-01-21 03:33:00,
2013-01-20 17:43:00,71.0,-26.0,-100.00,SE,144,23.0,40.0,0,0.00,,,0.00,655.000000,,2013-01-21 03:43:00,
2013-01-20 17:52:00,68.0,-28.0,-100.00,NE,35,22.0,34.0,0,0.00,,,0.00,404.000000,,2013-01-21 03:52:00,
2013-01-20 18:12:00,68.0,-28.0,-100.00,NE,35,22.0,34.0,0,0.00,,,0.00,404.000000,,2013-01-21 04:12:00,
2013-01-20 18:23:00,68.0,-28.0,-100.00,NE,35,22.0,34.0,0,0.00,,,0.00,404.000000,,2013-01-21 04:23:00,
2013-01-20 18:32:00,68.0,-28.0,-100.00,NE,35,22.0,34.0,0,0.00,,,0.00,404.000000,,2013-01-21 04:32:00,
2013-01-20 18:42:00,68.0,-28.0,-100.00,NE,35,22.0,34.0,0,0.00,,,0.00,404.000000,,2013-01-21 04:42:00,
2013-01-20 18:52:00,67.0,-29.0,-100.00,SW,236,21.0,34.0,0,0.00,,,0.00,124.000000,,2013-01-21 04:52:00,
2013-01-20 19:12:00,67.0,-29.0,-100.00,SW,236,21.0,34.0,0,0.00,,,0.00,124.000000,,2013-01-21 05:12:00,
2013-01-20 19:22:00,67.0,-29.0,-100.00,SW,236,21.0,34.0,0,0.00,,,0.00,124.000000,,2013-01-21 05:22:00,
2013-01-20 19:33:00,67.0,-29.0,-100.00,SW,236,21.0,34.0,0,0.00,,,0.00,124.000000,,2013-01-21 05:33:00,
2013-01-20 19:42:00,67.0,-29.0,-100.00,SW,236,21.0,34.0,0,0.00,,,0.00,124.000000,,2013-01-21 05:42:00,
2013-01-20 19:52:00,66.0,-29.0,-100.00,NE,36,20.0,41.0,0,0.00,,,0.00,2.000000,,2013-01-21 05:52:00,
2013-01-20 20:12:00,66.0,-29.0,-100.00,NE,36,20.0,41.0,0,0.00,,,0.00,2.000000,,2013-01-21 06:12:00,
2013-01-20 20:23:00,66.0,-29.0,-100.00,NE,36,20.0,41.0,0,0.00,,,0.00,2.000000,,2013-01-21 06:23:00,
2013-01-20 20:32:00,66.0,-29.0,-100.00,NE,36,20.0,41.0,0,0.00,,,0.00,2.000000,,2013-01-21 06:32:00,
2013-01-20 20:43:00,66.0,-29.0,-100.00,NE,36,20.0,41.0,0,0.00,,,0.00,2.000000,,2013-01-21 06:43:00,
2013-01-20 20:52:00,64.0,-31.0,-100.00,North,358,19.0,50.0,0,0.00,,,-99.99,0.000000,,2013-01-21 06:52:00,
2013-01-20 21:12:00,64.0,-31.0,-100.00,North,358,19.0,50.0,0,0.00,,,-99.99,0.000000,,2013-01-21 07:12:00,
2013-01-20 21:22:00,64.0,-31.0,-100.00,North,358,19.0,50.0,0,0.00,,,-99.99,0.000000,,2013-01-21 07:22:00,
2013-01-20 21:33:00,64.0,-31.0,-100.00,North,358,19.0,50.0,0,0.00,,,-99.99,0.000000,,2013-01-21 07:33:00,
2013-01-20 21:42:00,64.0,-31.0,-100.00,North,358,19.0,50.0,0,0.00,,,-99.99,0.000000,,2013-01-21 07:42:00,
2013-01-20 21:52:00,64.0,-31.0,-100.00,NNE,15,19.0,50.0,0,0.00,,,0.00,0.000000,,2013-01-21 07:52:00,
2013-01-20 22:13:00,64.0,-31.0,-100.00,NNE,15,19.0,50.0,0,0.00,,,0.00,0.000000,,2013-01-21 08:13:00,
2013-01-20 22:22:00,64.0,-31.0,-100.00,NNE,15,19.0,50.0,0,0.00,,,0.00,0.000000,,2013-01-21 08:22:00,
2013-01-20 22:32:00,64.0,-31.0,-100.00,NNE,15,19.0,50.0,0,0.00,,,0.00,0.000000,,2013-01-21 08:32:00,
2013-01-20 22:42:00,64.0,-31.0,-100.00,NNE,15,19.0,50.0,0,0.00,,,0.00,0.000000,,2013-01-21 08:42:00,
2013-01-20 22:52:00,65.0,-30.0,-100.00,ESE,114,18.0,49.0,0,0.00,,,0.00,0.000000,,2013-01-21 08:52:00,
2013-01-20 23:12:00,65.0,-30.0,-100.00,ESE,114,18.0,49.0,0,0.00,,,0.00,0.000000,,2013-01-21 09:12:00,
2013-01-20 23:22:00,65.0,-30.0,-100.00,ESE,114,18.0,49.0,0,0.00,,,0.00,0.000000,,2013-01-21 09:22:00,
2013-01-20 23:33:00,65.0,-30.0,-100.00,ESE,114,18.0,49.0,0,0.00,,,0.00,0.000000,,2013-01-21 09:33:00,
2013-01-20 23:42:00,65.0,-30.0,-100.00,ESE,114,18.0,49.0,0,0.00,,,0.00,0.000000,,2013-01-21 09:42:00,
2013-01-20 23:52:00,64.0,-31.0,-100.00,WNW,289,22.0,48.0,0,0.00,,,0.00,0.000000,,2013-01-21 09:52:00,